San Julian, San Juan Domingo Faustino Sarmiento (SANU)

NameSan Juan Domingo Faustino Sarmiento
CitySan Julian
CountryArgentina
ICAOSANU
IATAUAQ
Altitude596 m
CoordinatesGoogle Map
Live Air TrafficLiveATC.net
METARSANU 021005Z 16014KT 9999 BKN025 09/06 Q1015
2018-05-02 10:05:00 Wind: South-Southeast (160°) 7.2 m/s - Visibility: > 10000 m - Temperature: 9 °C - Dew point: 6 °C - Humidity: 81.7% - Pressure: 1015 hPa
Statistics

The table below shows the detailed information of all flights to/from San Julian, San Juan Domingo Faustino Sarmiento (SANU).